sensor_id;sensor_type;location;lat;lon;timestamp;P1;durP1;ratioP1;P2;durP2;ratioP2
17784;SDS011;9016;53.582;10.062;2023-07-20T00:00:14;0.30;;;0.30;;
17784;SDS011;9016;53.582;10.062;2023-07-20T00:02:43;0.20;;;0.20;;
17784;SDS011;9016;53.582;10.062;2023-07-20T00:05:11;0.30;;;0.30;;
17784;SDS011;9016;53.582;10.062;2023-07-20T00:07:39;0.30;;;0.30;;
17784;SDS011;9016;53.582;10.062;2023-07-20T00:10:09;0.30;;;0.30;;
17784;SDS011;9016;53.582;10.062;2023-07-20T00:12:37;0.30;;;0.30;;
17784;SDS011;9016;53.582;10.062;2023-07-20T00:15:05;0.30;;;0.30;;
17784;SDS011;9016;53.582;10.062;2023-07-20T00:17:34;0.30;;;0.30;;
17784;SDS011;9016;53.582;10.062;2023-07-20T00:20:04;0.30;;;0.30;;
17784;SDS011;9016;53.582;10.062;2023-07-20T00:22:35;0.30;;;0.30;;
17784;SDS011;9016;53.582;10.062;2023-07-20T00:25:03;0.30;;;0.30;;
17784;SDS011;9016;53.582;10.062;2023-07-20T00:27:33;0.30;;;0.30;;
17784;SDS011;9016;53.582;10.062;2023-07-20T00:30:01;0.30;;;0.30;;
17784;SDS011;9016;53.582;10.062;2023-07-20T00:32:29;0.20;;;0.20;;
17784;SDS011;9016;53.582;10.062;2023-07-20T00:34:57;0.30;;;0.30;;
17784;SDS011;9016;53.582;10.062;2023-07-20T00:37:25;0.30;;;0.30;;
17784;SDS011;9016;53.582;10.062;2023-07-20T00:39:53;0.30;;;0.30;;
17784;SDS011;9016;53.582;10.062;2023-07-20T00:42:21;0.20;;;0.20;;
17784;SDS011;9016;53.582;10.062;2023-07-20T00:44:51;0.30;;;0.30;;
17784;SDS011;9016;53.582;10.062;2023-07-20T00:47:17;0.30;;;0.30;;
17784;SDS011;9016;53.582;10.062;2023-07-20T00:49:46;0.30;;;0.30;;
17784;SDS011;9016;53.582;10.062;2023-07-20T00:52:14;0.30;;;0.30;;
17784;SDS011;9016;53.582;10.062;2023-07-20T00:54:42;0.30;;;0.30;;
17784;SDS011;9016;53.582;10.062;2023-07-20T00:57:11;0.20;;;0.20;;
17784;SDS011;9016;53.582;10.062;2023-07-20T00:59:42;0.30;;;0.30;;
17784;SDS011;9016;53.582;10.062;2023-07-20T01:02:12;0.20;;;0.20;;
17784;SDS011;9016;53.582;10.062;2023-07-20T01:04:40;0.30;;;0.30;;
17784;SDS011;9016;53.582;10.062;2023-07-20T01:07:10;0.30;;;0.30;;
17784;SDS011;9016;53.582;10.062;2023-07-20T01:09:42;0.30;;;0.30;;
17784;SDS011;9016;53.582;10.062;2023-07-20T01:12:18;0.30;;;0.30;;
17784;SDS011;9016;53.582;10.062;2023-07-20T01:14:54;0.30;;;0.30;;
17784;SDS011;9016;53.582;10.062;2023-07-20T01:17:24;0.30;;;0.30;;
17784;SDS011;9016;53.582;10.062;2023-07-20T01:19:52;0.30;;;0.30;;
17784;SDS011;9016;53.582;10.062;2023-07-20T01:22:23;0.30;;;0.30;;
17784;SDS011;9016;53.582;10.062;2023-07-20T01:25:32;0.30;;;0.30;;
17784;SDS011;9016;53.582;10.062;2023-07-20T01:31:19;0.30;;;0.30;;
17784;SDS011;9016;53.582;10.062;2023-07-20T01:33:52;0.20;;;0.20;;
17784;SDS011;9016;53.582;10.062;2023-07-20T01:36:22;0.30;;;0.30;;
17784;SDS011;9016;53.582;10.062;2023-07-20T01:38:52;0.30;;;0.30;;
17784;SDS011;9016;53.582;10.062;2023-07-20T01:41:20;0.30;;;0.30;;
17784;SDS011;9016;53.582;10.062;2023-07-20T01:43:49;0.30;;;0.30;;
17784;SDS011;9016;53.582;10.062;2023-07-20T01:46:17;0.30;;;0.30;;
17784;SDS011;9016;53.582;10.062;2023-07-20T01:48:46;0.20;;;0.20;;
17784;SDS011;9016;53.582;10.062;2023-07-20T01:51:15;0.30;;;0.30;;
17784;SDS011;9016;53.582;10.062;2023-07-20T01:53:44;0.20;;;0.20;;
17784;SDS011;9016;53.582;10.062;2023-07-20T01:56:12;0.20;;;0.20;;
17784;SDS011;9016;53.582;10.062;2023-07-20T01:58:40;0.30;;;0.30;;
17784;SDS011;9016;53.582;10.062;2023-07-20T02:01:08;0.30;;;0.30;;
17784;SDS011;9016;53.582;10.062;2023-07-20T02:03:36;0.30;;;0.30;;
17784;SDS011;9016;53.582;10.062;2023-07-20T02:06:05;0.23;;;0.23;;
17784;SDS011;9016;53.582;10.062;2023-07-20T02:08:33;0.20;;;0.20;;
17784;SDS011;9016;53.582;10.062;2023-07-20T02:11:02;0.30;;;0.30;;
17784;SDS011;9016;53.582;10.062;2023-07-20T02:13:30;0.30;;;0.30;;
17784;SDS011;9016;53.582;10.062;2023-07-20T02:15:58;0.30;;;0.30;;
17784;SDS011;9016;53.582;10.062;2023-07-20T02:18:26;0.30;;;0.30;;
17784;SDS011;9016;53.582;10.062;2023-07-20T02:20:54;0.30;;;0.30;;
17784;SDS011;9016;53.582;10.062;2023-07-20T02:23:24;0.30;;;0.30;;
17784;SDS011;9016;53.582;10.062;2023-07-20T02:25:52;0.30;;;0.30;;
17784;SDS011;9016;53.582;10.062;2023-07-20T02:28:20;0.30;;;0.30;;
17784;SDS011;9016;53.582;10.062;2023-07-20T02:30:48;0.30;;;0.30;;
17784;SDS011;9016;53.582;10.062;2023-07-20T02:33:16;0.30;;;0.30;;
17784;SDS011;9016;53.582;10.062;2023-07-20T02:35:44;0.30;;;0.30;;
17784;SDS011;9016;53.582;10.062;2023-07-20T02:38:12;0.20;;;0.20;;
17784;SDS011;9016;53.582;10.062;2023-07-20T02:40:42;0.30;;;0.30;;
17784;SDS011;9016;53.582;10.062;2023-07-20T02:43:10;0.30;;;0.30;;
17784;SDS011;9016;53.582;10.062;2023-07-20T02:45:39;0.30;;;0.30;;
17784;SDS011;9016;53.582;10.062;2023-07-20T02:48:08;0.40;;;0.40;;
17784;SDS011;9016;53.582;10.062;2023-07-20T02:50:36;0.30;;;0.30;;
17784;SDS011;9016;53.582;10.062;2023-07-20T02:53:04;0.33;;;0.33;;
17784;SDS011;9016;53.582;10.062;2023-07-20T02:55:32;0.20;;;0.20;;
17784;SDS011;9016;53.582;10.062;2023-07-20T02:58:01;0.20;;;0.20;;
17784;SDS011;9016;53.582;10.062;2023-07-20T03:00:29;0.30;;;0.30;;
17784;SDS011;9016;53.582;10.062;2023-07-20T03:02:57;0.20;;;0.20;;
17784;SDS011;9016;53.582;10.062;2023-07-20T03:05:25;0.30;;;0.30;;
17784;SDS011;9016;53.582;10.062;2023-07-20T03:07:54;0.20;;;0.20;;
17784;SDS011;9016;53.582;10.062;2023-07-20T03:10:22;0.30;;;0.30;;
17784;SDS011;9016;53.582;10.062;2023-07-20T03:12:50;0.23;;;0.23;;
17784;SDS011;9016;53.582;10.062;2023-07-20T03:15:20;0.30;;;0.30;;
17784;SDS011;9016;53.582;10.062;2023-07-20T03:17:48;0.30;;;0.30;;
17784;SDS011;9016;53.582;10.062;2023-07-20T03:20:16;0.30;;;0.30;;
17784;SDS011;9016;53.582;10.062;2023-07-20T03:22:44;0.30;;;0.30;;
17784;SDS011;9016;53.582;10.062;2023-07-20T03:25:13;0.20;;;0.20;;
17784;SDS011;9016;53.582;10.062;2023-07-20T03:27:45;0.30;;;0.30;;
17784;SDS011;9016;53.582;10.062;2023-07-20T03:30:15;0.20;;;0.20;;
17784;SDS011;9016;53.582;10.062;2023-07-20T03:32:45;0.30;;;0.30;;
17784;SDS011;9016;53.582;10.062;2023-07-20T03:35:13;0.30;;;0.30;;
17784;SDS011;9016;53.582;10.062;2023-07-20T03:37:42;0.30;;;0.30;;
17784;SDS011;9016;53.582;10.062;2023-07-20T03:40:10;0.30;;;0.30;;
17784;SDS011;9016;53.582;10.062;2023-07-20T03:42:38;0.30;;;0.30;;
17784;SDS011;9016;53.582;10.062;2023-07-20T03:45:07;0.30;;;0.30;;
17784;SDS011;9016;53.582;10.062;2023-07-20T03:47:35;0.30;;;0.30;;
17784;SDS011;9016;53.582;10.062;2023-07-20T03:50:06;0.30;;;0.30;;
17784;SDS011;9016;53.582;10.062;2023-07-20T03:52:36;0.30;;;0.30;;
17784;SDS011;9016;53.582;10.062;2023-07-20T03:55:04;0.30;;;0.30;;
17784;SDS011;9016;53.582;10.062;2023-07-20T03:57:33;0.20;;;0.20;;
17784;SDS011;9016;53.582;10.062;2023-07-20T04:00:05;0.30;;;0.30;;
17784;SDS011;9016;53.582;10.062;2023-07-20T04:02:34;0.30;;;0.30;;
17784;SDS011;9016;53.582;10.062;2023-07-20T04:05:02;0.20;;;0.20;;
17784;SDS011;9016;53.582;10.062;2023-07-20T04:07:32;0.30;;;0.30;;
17784;SDS011;9016;53.582;10.062;2023-07-20T04:10:00;0.30;;;0.30;;
17784;SDS011;9016;53.582;10.062;2023-07-20T04:12:28;0.30;;;0.30;;
17784;SDS011;9016;53.582;10.062;2023-07-20T04:14:58;0.30;;;0.30;;
17784;SDS011;9016;53.582;10.062;2023-07-20T04:17:27;0.30;;;0.30;;
17784;SDS011;9016;53.582;10.062;2023-07-20T04:19:59;0.30;;;0.30;;
17784;SDS011;9016;53.582;10.062;2023-07-20T04:22:27;0.30;;;0.30;;
17784;SDS011;9016;53.582;10.062;2023-07-20T04:24:57;0.30;;;0.30;;
17784;SDS011;9016;53.582;10.062;2023-07-20T04:27:25;0.30;;;0.30;;
17784;SDS011;9016;53.582;10.062;2023-07-20T04:29:53;0.30;;;0.30;;
17784;SDS011;9016;53.582;10.062;2023-07-20T04:32:21;0.40;;;0.40;;
17784;SDS011;9016;53.582;10.062;2023-07-20T04:34:49;0.30;;;0.30;;
17784;SDS011;9016;53.582;10.062;2023-07-20T04:37:17;0.30;;;0.30;;
17784;SDS011;9016;53.582;10.062;2023-07-20T04:39:45;0.30;;;0.30;;
17784;SDS011;9016;53.582;10.062;2023-07-20T04:42:18;0.30;;;0.30;;
17784;SDS011;9016;53.582;10.062;2023-07-20T04:44:55;0.30;;;0.30;;
17784;SDS011;9016;53.582;10.062;2023-07-20T04:47:23;0.30;;;0.30;;
17784;SDS011;9016;53.582;10.062;2023-07-20T04:49:51;0.30;;;0.30;;
17784;SDS011;9016;53.582;10.062;2023-07-20T04:52:19;0.30;;;0.30;;
17784;SDS011;9016;53.582;10.062;2023-07-20T04:55:03;0.30;;;0.30;;
17784;SDS011;9016;53.582;10.062;2023-07-20T04:57:32;0.30;;;0.30;;
17784;SDS011;9016;53.582;10.062;2023-07-20T05:00:00;0.30;;;0.30;;
17784;SDS011;9016;53.582;10.062;2023-07-20T05:02:29;0.30;;;0.30;;
17784;SDS011;9016;53.582;10.062;2023-07-20T05:04:57;0.27;;;0.27;;
17784;SDS011;9016;53.582;10.062;2023-07-20T05:07:25;0.30;;;0.30;;
17784;SDS011;9016;53.582;10.062;2023-07-20T05:09:54;0.30;;;0.30;;
17784;SDS011;9016;53.582;10.062;2023-07-20T05:12:22;0.30;;;0.30;;
17784;SDS011;9016;53.582;10.062;2023-07-20T05:14:52;0.30;;;0.30;;
17784;SDS011;9016;53.582;10.062;2023-07-20T05:17:23;0.30;;;0.30;;
17784;SDS011;9016;53.582;10.062;2023-07-20T05:19:51;0.30;;;0.30;;
17784;SDS011;9016;53.582;10.062;2023-07-20T05:22:21;0.30;;;0.30;;
17784;SDS011;9016;53.582;10.062;2023-07-20T05:24:51;0.20;;;0.20;;
17784;SDS011;9016;53.582;10.062;2023-07-20T05:27:18;0.30;;;0.30;;
17784;SDS011;9016;53.582;10.062;2023-07-20T05:29:47;0.20;;;0.20;;
17784;SDS011;9016;53.582;10.062;2023-07-20T05:32:17;0.30;;;0.30;;
17784;SDS011;9016;53.582;10.062;2023-07-20T05:34:45;0.30;;;0.30;;
17784;SDS011;9016;53.582;10.062;2023-07-20T05:37:33;0.30;;;0.30;;
17784;SDS011;9016;53.582;10.062;2023-07-20T05:40:01;0.20;;;0.20;;
17784;SDS011;9016;53.582;10.062;2023-07-20T05:42:30;0.30;;;0.30;;
17784;SDS011;9016;53.582;10.062;2023-07-20T05:44:58;0.30;;;0.30;;
17784;SDS011;9016;53.582;10.062;2023-07-20T05:47:28;0.30;;;0.30;;
17784;SDS011;9016;53.582;10.062;2023-07-20T05:49:56;0.30;;;0.30;;
17784;SDS011;9016;53.582;10.062;2023-07-20T05:52:24;0.20;;;0.20;;
17784;SDS011;9016;53.582;10.062;2023-07-20T05:54:52;0.30;;;0.30;;
17784;SDS011;9016;53.582;10.062;2023-07-20T05:57:20;0.40;;;0.40;;
17784;SDS011;9016;53.582;10.062;2023-07-20T05:59:48;0.30;;;0.30;;
17784;SDS011;9016;53.582;10.062;2023-07-20T06:02:16;0.30;;;0.30;;
17784;SDS011;9016;53.582;10.062;2023-07-20T06:04:45;0.20;;;0.20;;
17784;SDS011;9016;53.582;10.062;2023-07-20T06:07:13;0.30;;;0.30;;
17784;SDS011;9016;53.582;10.062;2023-07-20T06:09:42;0.30;;;0.30;;
17784;SDS011;9016;53.582;10.062;2023-07-20T06:12:10;0.30;;;0.30;;
17784;SDS011;9016;53.582;10.062;2023-07-20T06:14:38;0.30;;;0.30;;
17784;SDS011;9016;53.582;10.062;2023-07-20T06:17:06;0.30;;;0.30;;
17784;SDS011;9016;53.582;10.062;2023-07-20T06:19:34;0.30;;;0.30;;
17784;SDS011;9016;53.582;10.062;2023-07-20T06:22:04;0.30;;;0.30;;
17784;SDS011;9016;53.582;10.062;2023-07-20T06:24:32;0.33;;;0.33;;
17784;SDS011;9016;53.582;10.062;2023-07-20T06:27:00;0.30;;;0.30;;
17784;SDS011;9016;53.582;10.062;2023-07-20T06:29:29;0.28;;;0.28;;
17784;SDS011;9016;53.582;10.062;2023-07-20T06:31:56;0.30;;;0.30;;
17784;SDS011;9016;53.582;10.062;2023-07-20T06:34:24;0.30;;;0.30;;
17784;SDS011;9016;53.582;10.062;2023-07-20T06:36:52;0.30;;;0.30;;
17784;SDS011;9016;53.582;10.062;2023-07-20T06:39:22;0.30;;;0.30;;
17784;SDS011;9016;53.582;10.062;2023-07-20T06:41:53;0.60;;;0.60;;
17784;SDS011;9016;53.582;10.062;2023-07-20T06:44:21;0.30;;;0.30;;
17784;SDS011;9016;53.582;10.062;2023-07-20T06:46:49;0.30;;;0.30;;
17784;SDS011;9016;53.582;10.062;2023-07-20T06:49:24;0.30;;;0.30;;
17784;SDS011;9016;53.582;10.062;2023-07-20T06:51:53;0.57;;;0.57;;
17784;SDS011;9016;53.582;10.062;2023-07-20T06:54:22;0.60;;;0.60;;
17784;SDS011;9016;53.582;10.062;2023-07-20T06:56:54;0.60;;;0.60;;
17784;SDS011;9016;53.582;10.062;2023-07-20T06:59:25;0.30;;;0.30;;
17784;SDS011;9016;53.582;10.062;2023-07-20T07:01:52;0.30;;;0.30;;
17784;SDS011;9016;53.582;10.062;2023-07-20T07:04:20;0.70;;;0.70;;
17784;SDS011;9016;53.582;10.062;2023-07-20T07:06:49;0.65;;;0.65;;
17784;SDS011;9016;53.582;10.062;2023-07-20T07:09:16;0.43;;;0.43;;
17784;SDS011;9016;53.582;10.062;2023-07-20T07:11:46;0.65;;;0.65;;
17784;SDS011;9016;53.582;10.062;2023-07-20T07:14:14;0.40;;;0.40;;
17784;SDS011;9016;53.582;10.062;2023-07-20T07:16:42;0.40;;;0.40;;
17784;SDS011;9016;53.582;10.062;2023-07-20T07:19:11;0.70;;;0.70;;
17784;SDS011;9016;53.582;10.062;2023-07-20T07:21:39;0.40;;;0.40;;
17784;SDS011;9016;53.582;10.062;2023-07-20T07:24:07;0.40;;;0.40;;
17784;SDS011;9016;53.582;10.062;2023-07-20T07:26:36;0.60;;;0.60;;
17784;SDS011;9016;53.582;10.062;2023-07-20T07:29:09;0.70;;;0.70;;
17784;SDS011;9016;53.582;10.062;2023-07-20T07:31:37;0.70;;;0.70;;
17784;SDS011;9016;53.582;10.062;2023-07-20T07:34:05;0.70;;;0.70;;
17784;SDS011;9016;53.582;10.062;2023-07-20T07:36:34;0.45;;;0.45;;
17784;SDS011;9016;53.582;10.062;2023-07-20T07:39:02;0.40;;;0.40;;
17784;SDS011;9016;53.582;10.062;2023-07-20T07:41:33;0.40;;;0.40;;
17784;SDS011;9016;53.582;10.062;2023-07-20T07:44:01;0.40;;;0.40;;
17784;SDS011;9016;53.582;10.062;2023-07-20T07:46:31;0.32;;;0.32;;
17784;SDS011;9016;53.582;10.062;2023-07-20T07:48:59;0.30;;;0.30;;
17784;SDS011;9016;53.582;10.062;2023-07-20T07:51:27;0.30;;;0.30;;
17784;SDS011;9016;53.582;10.062;2023-07-20T07:53:55;0.30;;;0.30;;
17784;SDS011;9016;53.582;10.062;2023-07-20T07:56:24;0.60;;;0.60;;
17784;SDS011;9016;53.582;10.062;2023-07-20T07:58:52;0.70;;;0.70;;
17784;SDS011;9016;53.582;10.062;2023-07-20T08:01:20;0.65;;;0.65;;
17784;SDS011;9016;53.582;10.062;2023-07-20T08:03:50;0.60;;;0.60;;
17784;SDS011;9016;53.582;10.062;2023-07-20T08:06:19;0.73;;;0.73;;
17784;SDS011;9016;53.582;10.062;2023-07-20T08:08:47;0.70;;;0.70;;
17784;SDS011;9016;53.582;10.062;2023-07-20T08:11:15;0.47;;;0.47;;
17784;SDS011;9016;53.582;10.062;2023-07-20T08:13:44;0.40;;;0.40;;
17784;SDS011;9016;53.582;10.062;2023-07-20T08:16:12;0.47;;;0.47;;
17784;SDS011;9016;53.582;10.062;2023-07-20T08:18:40;0.70;;;0.70;;
17784;SDS011;9016;53.582;10.062;2023-07-20T08:21:10;0.70;;;0.70;;
17784;SDS011;9016;53.582;10.062;2023-07-20T08:23:38;0.70;;;0.70;;
17784;SDS011;9016;53.582;10.062;2023-07-20T08:26:06;0.60;;;0.60;;
17784;SDS011;9016;53.582;10.062;2023-07-20T08:28:34;0.50;;;0.50;;
17784;SDS011;9016;53.582;10.062;2023-07-20T08:31:02;0.70;;;0.70;;
17784;SDS011;9016;53.582;10.062;2023-07-20T08:33:33;0.50;;;0.50;;
17784;SDS011;9016;53.582;10.062;2023-07-20T08:36:01;0.68;;;0.68;;
17784;SDS011;9016;53.582;10.062;2023-07-20T08:38:31;0.38;;;0.38;;
17784;SDS011;9016;53.582;10.062;2023-07-20T08:40:59;0.70;;;0.70;;
17784;SDS011;9016;53.582;10.062;2023-07-20T08:43:28;0.80;;;0.80;;
17784;SDS011;9016;53.582;10.062;2023-07-20T08:45:57;0.70;;;0.70;;
17784;SDS011;9016;53.582;10.062;2023-07-20T08:48:26;0.60;;;0.60;;
17784;SDS011;9016;53.582;10.062;2023-07-20T08:50:55;0.47;;;0.47;;
17784;SDS011;9016;53.582;10.062;2023-07-20T08:53:23;0.50;;;0.50;;
17784;SDS011;9016;53.582;10.062;2023-07-20T08:55:53;0.40;;;0.40;;
17784;SDS011;9016;53.582;10.062;2023-07-20T08:58:21;0.40;;;0.40;;
17784;SDS011;9016;53.582;10.062;2023-07-20T09:00:52;0.40;;;0.40;;
17784;SDS011;9016;53.582;10.062;2023-07-20T09:03:21;0.68;;;0.68;;
17784;SDS011;9016;53.582;10.062;2023-07-20T09:05:50;0.70;;;0.70;;
17784;SDS011;9016;53.582;10.062;2023-07-20T09:08:18;0.80;;;0.80;;
17784;SDS011;9016;53.582;10.062;2023-07-20T09:10:46;0.70;;;0.70;;
17784;SDS011;9016;53.582;10.062;2023-07-20T09:13:16;0.70;;;0.70;;
17784;SDS011;9016;53.582;10.062;2023-07-20T09:15:48;0.70;;;0.70;;
17784;SDS011;9016;53.582;10.062;2023-07-20T09:18:24;0.70;;;0.70;;
17784;SDS011;9016;53.582;10.062;2023-07-20T09:20:53;0.90;;;0.90;;
17784;SDS011;9016;53.582;10.062;2023-07-20T09:23:22;0.60;;;0.60;;
17784;SDS011;9016;53.582;10.062;2023-07-20T09:25:58;0.55;;;0.55;;
17784;SDS011;9016;53.582;10.062;2023-07-20T09:28:28;0.50;;;0.50;;
17784;SDS011;9016;53.582;10.062;2023-07-20T09:30:56;0.40;;;0.40;;
17784;SDS011;9016;53.582;10.062;2023-07-20T09:33:25;0.40;;;0.40;;
17784;SDS011;9016;53.582;10.062;2023-07-20T09:35:54;0.30;;;0.30;;
17784;SDS011;9016;53.582;10.062;2023-07-20T09:38:48;0.40;;;0.40;;
17784;SDS011;9016;53.582;10.062;2023-07-20T09:41:21;0.50;;;0.50;;
17784;SDS011;9016;53.582;10.062;2023-07-20T09:43:53;0.40;;;0.40;;
17784;SDS011;9016;53.582;10.062;2023-07-20T09:46:22;0.40;;;0.40;;
17784;SDS011;9016;53.582;10.062;2023-07-20T09:48:53;0.50;;;0.50;;
17784;SDS011;9016;53.582;10.062;2023-07-20T09:51:24;0.40;;;0.40;;
17784;SDS011;9016;53.582;10.062;2023-07-20T09:53:52;0.40;;;0.40;;
17784;SDS011;9016;53.582;10.062;2023-07-20T09:56:21;0.40;;;0.40;;
17784;SDS011;9016;53.582;10.062;2023-07-20T09:58:51;0.40;;;0.40;;
17784;SDS011;9016;53.582;10.062;2023-07-20T10:01:20;0.30;;;0.30;;
17784;SDS011;9016;53.582;10.062;2023-07-20T10:03:52;0.40;;;0.40;;
17784;SDS011;9016;53.582;10.062;2023-07-20T10:06:24;0.40;;;0.40;;
17784;SDS011;9016;53.582;10.062;2023-07-20T10:08:53;0.30;;;0.30;;
17784;SDS011;9016;53.582;10.062;2023-07-20T10:11:29;0.40;;;0.40;;
17784;SDS011;9016;53.582;10.062;2023-07-20T10:13:59;0.40;;;0.40;;
17784;SDS011;9016;53.582;10.062;2023-07-20T10:16:34;0.40;;;0.40;;
17784;SDS011;9016;53.582;10.062;2023-07-20T10:19:05;0.40;;;0.40;;
17784;SDS011;9016;53.582;10.062;2023-07-20T10:21:40;0.40;;;0.40;;
17784;SDS011;9016;53.582;10.062;2023-07-20T10:24:10;0.40;;;0.40;;
17784;SDS011;9016;53.582;10.062;2023-07-20T10:26:39;0.43;;;0.43;;
17784;SDS011;9016;53.582;10.062;2023-07-20T10:29:07;0.40;;;0.40;;
17784;SDS011;9016;53.582;10.062;2023-07-20T10:31:38;0.30;;;0.30;;
17784;SDS011;9016;53.582;10.062;2023-07-20T10:34:06;0.45;;;0.45;;
17784;SDS011;9016;53.582;10.062;2023-07-20T10:36:43;0.30;;;0.30;;
17784;SDS011;9016;53.582;10.062;2023-07-20T10:39:21;0.30;;;0.30;;
17784;SDS011;9016;53.582;10.062;2023-07-20T10:41:53;0.30;;;0.30;;
17784;SDS011;9016;53.582;10.062;2023-07-20T10:44:28;0.40;;;0.40;;
17784;SDS011;9016;53.582;10.062;2023-07-20T10:47:01;0.40;;;0.40;;
17784;SDS011;9016;53.582;10.062;2023-07-20T10:49:32;0.32;;;0.32;;
17784;SDS011;9016;53.582;10.062;2023-07-20T10:52:03;0.40;;;0.40;;
17784;SDS011;9016;53.582;10.062;2023-07-20T10:54:33;0.40;;;0.40;;
17784;SDS011;9016;53.582;10.062;2023-07-20T11:00:08;0.40;;;0.40;;
17784;SDS011;9016;53.582;10.062;2023-07-20T11:02:43;0.30;;;0.30;;
17784;SDS011;9016;53.582;10.062;2023-07-20T11:05:32;0.30;;;0.30;;
17784;SDS011;9016;53.582;10.062;2023-07-20T11:08:05;0.32;;;0.32;;
17784;SDS011;9016;53.582;10.062;2023-07-20T11:10:37;0.30;;;0.30;;
17784;SDS011;9016;53.582;10.062;2023-07-20T11:13:21;0.30;;;0.30;;
17784;SDS011;9016;53.582;10.062;2023-07-20T11:16:01;0.40;;;0.40;;
17784;SDS011;9016;53.582;10.062;2023-07-20T11:18:34;0.40;;;0.40;;
17784;SDS011;9016;53.582;10.062;2023-07-20T11:21:07;0.30;;;0.30;;
17784;SDS011;9016;53.582;10.062;2023-07-20T11:23:37;0.30;;;0.30;;
17784;SDS011;9016;53.582;10.062;2023-07-20T11:26:09;0.32;;;0.32;;
17784;SDS011;9016;53.582;10.062;2023-07-20T11:28:38;0.30;;;0.30;;
17784;SDS011;9016;53.582;10.062;2023-07-20T11:31:06;0.30;;;0.30;;
17784;SDS011;9016;53.582;10.062;2023-07-20T11:33:36;0.30;;;0.30;;
17784;SDS011;9016;53.582;10.062;2023-07-20T11:36:05;0.30;;;0.30;;
17784;SDS011;9016;53.582;10.062;2023-07-20T11:38:39;0.30;;;0.30;;
17784;SDS011;9016;53.582;10.062;2023-07-20T11:41:09;0.30;;;0.30;;
17784;SDS011;9016;53.582;10.062;2023-07-20T11:43:37;0.30;;;0.30;;
17784;SDS011;9016;53.582;10.062;2023-07-20T11:46:06;0.30;;;0.30;;
17784;SDS011;9016;53.582;10.062;2023-07-20T11:48:35;0.30;;;0.30;;
17784;SDS011;9016;53.582;10.062;2023-07-20T11:51:03;0.30;;;0.30;;
17784;SDS011;9016;53.582;10.062;2023-07-20T11:53:31;0.30;;;0.30;;
17784;SDS011;9016;53.582;10.062;2023-07-20T11:56:00;0.30;;;0.30;;
17784;SDS011;9016;53.582;10.062;2023-07-20T11:58:28;0.32;;;0.32;;
17784;SDS011;9016;53.582;10.062;2023-07-20T12:00:56;0.30;;;0.30;;
17784;SDS011;9016;53.582;10.062;2023-07-20T12:03:24;0.40;;;0.40;;
17784;SDS011;9016;53.582;10.062;2023-07-20T12:05:54;0.30;;;0.30;;
17784;SDS011;9016;53.582;10.062;2023-07-20T12:08:27;0.40;;;0.40;;
17784;SDS011;9016;53.582;10.062;2023-07-20T12:10:55;0.40;;;0.40;;
17784;SDS011;9016;53.582;10.062;2023-07-20T12:13:23;0.40;;;0.40;;
17784;SDS011;9016;53.582;10.062;2023-07-20T12:16:06;0.32;;;0.32;;
17784;SDS011;9016;53.582;10.062;2023-07-20T12:18:36;0.40;;;0.40;;
17784;SDS011;9016;53.582;10.062;2023-07-20T12:21:06;0.30;;;0.30;;
17784;SDS011;9016;53.582;10.062;2023-07-20T12:23:35;0.30;;;0.30;;
17784;SDS011;9016;53.582;10.062;2023-07-20T12:26:08;0.40;;;0.40;;
17784;SDS011;9016;53.582;10.062;2023-07-20T12:28:40;0.30;;;0.30;;
17784;SDS011;9016;53.582;10.062;2023-07-20T12:31:09;0.30;;;0.30;;
17784;SDS011;9016;53.582;10.062;2023-07-20T12:33:39;0.40;;;0.40;;
17784;SDS011;9016;53.582;10.062;2023-07-20T12:36:09;0.30;;;0.30;;
17784;SDS011;9016;53.582;10.062;2023-07-20T12:38:39;0.35;;;0.35;;
17784;SDS011;9016;53.582;10.062;2023-07-20T12:41:09;0.30;;;0.30;;
17784;SDS011;9016;53.582;10.062;2023-07-20T12:43:40;0.30;;;0.30;;
17784;SDS011;9016;53.582;10.062;2023-07-20T12:46:08;0.30;;;0.30;;
17784;SDS011;9016;53.582;10.062;2023-07-20T12:48:38;0.30;;;0.30;;
17784;SDS011;9016;53.582;10.062;2023-07-20T12:51:09;0.30;;;0.30;;
17784;SDS011;9016;53.582;10.062;2023-07-20T12:53:38;0.30;;;0.30;;
17784;SDS011;9016;53.582;10.062;2023-07-20T12:56:06;0.30;;;0.30;;
17784;SDS011;9016;53.582;10.062;2023-07-20T12:58:40;0.30;;;0.30;;
17784;SDS011;9016;53.582;10.062;2023-07-20T13:01:08;0.30;;;0.30;;
17784;SDS011;9016;53.582;10.062;2023-07-20T13:03:36;0.40;;;0.40;;
17784;SDS011;9016;53.582;10.062;2023-07-20T13:06:26;0.30;;;0.30;;
17784;SDS011;9016;53.582;10.062;2023-07-20T13:08:55;0.30;;;0.30;;
17784;SDS011;9016;53.582;10.062;2023-07-20T13:11:24;0.32;;;0.32;;
17784;SDS011;9016;53.582;10.062;2023-07-20T13:13:53;0.30;;;0.30;;
17784;SDS011;9016;53.582;10.062;2023-07-20T13:16:21;0.30;;;0.30;;
17784;SDS011;9016;53.582;10.062;2023-07-20T13:18:49;0.30;;;0.30;;
17784;SDS011;9016;53.582;10.062;2023-07-20T13:21:17;0.30;;;0.30;;
17784;SDS011;9016;53.582;10.062;2023-07-20T13:23:51;0.40;;;0.40;;
17784;SDS011;9016;53.582;10.062;2023-07-20T13:26:19;0.30;;;0.30;;
17784;SDS011;9016;53.582;10.062;2023-07-20T13:28:48;0.40;;;0.40;;
17784;SDS011;9016;53.582;10.062;2023-07-20T13:31:16;0.40;;;0.40;;
17784;SDS011;9016;53.582;10.062;2023-07-20T13:33:44;0.32;;;0.32;;
17784;SDS011;9016;53.582;10.062;2023-07-20T13:36:23;0.30;;;0.30;;
17784;SDS011;9016;53.582;10.062;2023-07-20T13:38:52;0.30;;;0.30;;
17784;SDS011;9016;53.582;10.062;2023-07-20T13:41:20;0.43;;;0.43;;
17784;SDS011;9016;53.582;10.062;2023-07-20T13:43:50;0.32;;;0.32;;
17784;SDS011;9016;53.582;10.062;2023-07-20T13:46:18;0.40;;;0.40;;
17784;SDS011;9016;53.582;10.062;2023-07-20T13:49:06;0.35;;;0.35;;
17784;SDS011;9016;53.582;10.062;2023-07-20T13:51:38;0.30;;;0.30;;
17784;SDS011;9016;53.582;10.062;2023-07-20T13:54:08;0.30;;;0.30;;
17784;SDS011;9016;53.582;10.062;2023-07-20T13:56:39;0.30;;;0.30;;
17784;SDS011;9016;53.582;10.062;2023-07-20T13:59:11;0.40;;;0.40;;
17784;SDS011;9016;53.582;10.062;2023-07-20T14:01:40;0.30;;;0.30;;
17784;SDS011;9016;53.582;10.062;2023-07-20T14:04:08;0.30;;;0.30;;
17784;SDS011;9016;53.582;10.062;2023-07-20T14:06:37;0.30;;;0.30;;
17784;SDS011;9016;53.582;10.062;2023-07-20T14:09:10;0.30;;;0.30;;
17784;SDS011;9016;53.582;10.062;2023-07-20T14:11:38;0.30;;;0.30;;
17784;SDS011;9016;53.582;10.062;2023-07-20T14:14:10;0.30;;;0.30;;
17784;SDS011;9016;53.582;10.062;2023-07-20T14:16:38;0.30;;;0.30;;
17784;SDS011;9016;53.582;10.062;2023-07-20T14:19:06;0.30;;;0.30;;
17784;SDS011;9016;53.582;10.062;2023-07-20T14:21:36;0.30;;;0.30;;
17784;SDS011;9016;53.582;10.062;2023-07-20T14:24:05;0.30;;;0.30;;
17784;SDS011;9016;53.582;10.062;2023-07-20T14:26:36;0.30;;;0.30;;
17784;SDS011;9016;53.582;10.062;2023-07-20T14:29:05;0.30;;;0.30;;
17784;SDS011;9016;53.582;10.062;2023-07-20T14:31:33;0.30;;;0.30;;
17784;SDS011;9016;53.582;10.062;2023-07-20T14:34:01;0.30;;;0.30;;
17784;SDS011;9016;53.582;10.062;2023-07-20T14:36:30;0.30;;;0.30;;
17784;SDS011;9016;53.582;10.062;2023-07-20T14:39:00;0.40;;;0.40;;
17784;SDS011;9016;53.582;10.062;2023-07-20T14:41:28;0.30;;;0.30;;
17784;SDS011;9016;53.582;10.062;2023-07-20T14:43:57;0.30;;;0.30;;
17784;SDS011;9016;53.582;10.062;2023-07-20T14:46:25;0.40;;;0.40;;
17784;SDS011;9016;53.582;10.062;2023-07-20T14:48:54;0.32;;;0.32;;
17784;SDS011;9016;53.582;10.062;2023-07-20T14:51:22;0.30;;;0.30;;
17784;SDS011;9016;53.582;10.062;2023-07-20T14:54:03;0.30;;;0.30;;
17784;SDS011;9016;53.582;10.062;2023-07-20T14:56:31;0.30;;;0.30;;
17784;SDS011;9016;53.582;10.062;2023-07-20T14:59:00;0.30;;;0.30;;
17784;SDS011;9016;53.582;10.062;2023-07-20T15:01:28;0.30;;;0.30;;
17784;SDS011;9016;53.582;10.062;2023-07-20T15:03:56;0.30;;;0.30;;
17784;SDS011;9016;53.582;10.062;2023-07-20T15:06:27;0.30;;;0.30;;
17784;SDS011;9016;53.582;10.062;2023-07-20T15:08:58;0.30;;;0.30;;